sensor_id;sensor_type;location;lat;lon;timestamp;temperature;humidity
48978;DHT22;34793;48.940;2.618;2022-08-19T00:01:34;27.10;65.20
48978;DHT22;34793;48.940;2.618;2022-08-19T00:04:02;27.10;65.30
48978;DHT22;34793;48.940;2.618;2022-08-19T00:06:29;27.10;65.30
48978;DHT22;34793;48.940;2.618;2022-08-19T00:08:55;27.00;65.70
48978;DHT22;34793;48.940;2.618;2022-08-19T00:11:21;26.80;66.10
48978;DHT22;34793;48.940;2.618;2022-08-19T00:13:46;26.70;66.30
48978;DHT22;34793;48.940;2.618;2022-08-19T00:16:14;26.60;66.50
48978;DHT22;34793;48.940;2.618;2022-08-19T00:18:39;26.40;66.80
48978;DHT22;34793;48.940;2.618;2022-08-19T00:21:05;26.60;67.50
48978;DHT22;34793;48.940;2.618;2022-08-19T00:23:32;26.70;66.20
48978;DHT22;34793;48.940;2.618;2022-08-19T00:26:00;26.80;65.50
48978;DHT22;34793;48.940;2.618;2022-08-19T00:28:25;26.80;66.20
48978;DHT22;34793;48.940;2.618;2022-08-19T00:30:51;26.80;65.30
48978;DHT22;34793;48.940;2.618;2022-08-19T00:33:18;26.80;65.70
48978;DHT22;34793;48.940;2.618;2022-08-19T00:35:44;26.80;65.40
48978;DHT22;34793;48.940;2.618;2022-08-19T00:38:09;26.80;65.20
48978;DHT22;34793;48.940;2.618;2022-08-19T00:40:35;26.70;65.90
48978;DHT22;34793;48.940;2.618;2022-08-19T00:43:00;26.60;65.60
48978;DHT22;34793;48.940;2.618;2022-08-19T00:45:26;26.60;65.60
48978;DHT22;34793;48.940;2.618;2022-08-19T00:47:53;26.60;65.30
48978;DHT22;34793;48.940;2.618;2022-08-19T00:50:18;26.60;65.60
48978;DHT22;34793;48.940;2.618;2022-08-19T00:52:46;26.50;65.50
48978;DHT22;34793;48.940;2.618;2022-08-19T00:55:13;26.40;65.90
48978;DHT22;34793;48.940;2.618;2022-08-19T00:57:40;26.40;65.70
48978;DHT22;34793;48.940;2.618;2022-08-19T01:00:08;26.30;65.50
48978;DHT22;34793;48.940;2.618;2022-08-19T01:02:35;26.30;65.50
48978;DHT22;34793;48.940;2.618;2022-08-19T01:05:02;26.20;65.90
48978;DHT22;34793;48.940;2.618;2022-08-19T01:07:29;26.10;66.00
48978;DHT22;34793;48.940;2.618;2022-08-19T01:09:55;26.10;66.60
48978;DHT22;34793;48.940;2.618;2022-08-19T01:12:20;26.20;66.20
48978;DHT22;34793;48.940;2.618;2022-08-19T01:14:46;26.20;66.40
48978;DHT22;34793;48.940;2.618;2022-08-19T01:17:12;26.10;66.10
48978;DHT22;34793;48.940;2.618;2022-08-19T01:19:40;26.10;65.90
48978;DHT22;34793;48.940;2.618;2022-08-19T01:22:14;26.10;66.00
48978;DHT22;34793;48.940;2.618;2022-08-19T01:24:41;26.10;65.80
48978;DHT22;34793;48.940;2.618;2022-08-19T01:27:07;26.10;65.50
48978;DHT22;34793;48.940;2.618;2022-08-19T01:29:33;26.00;65.60
48978;DHT22;34793;48.940;2.618;2022-08-19T01:31:59;25.90;66.30
48978;DHT22;34793;48.940;2.618;2022-08-19T01:34:26;25.90;66.20
48978;DHT22;34793;48.940;2.618;2022-08-19T01:36:51;25.80;67.00
48978;DHT22;34793;48.940;2.618;2022-08-19T01:39:18;25.80;66.40
48978;DHT22;34793;48.940;2.618;2022-08-19T01:41:45;25.80;66.20
48978;DHT22;34793;48.940;2.618;2022-08-19T01:44:10;25.70;66.50
48978;DHT22;34793;48.940;2.618;2022-08-19T01:46:36;25.70;67.70
48978;DHT22;34793;48.940;2.618;2022-08-19T01:49:03;25.80;67.50
48978;DHT22;34793;48.940;2.618;2022-08-19T01:51:28;25.70;68.30
48978;DHT22;34793;48.940;2.618;2022-08-19T01:53:55;25.70;67.40
48978;DHT22;34793;48.940;2.618;2022-08-19T01:56:21;25.70;67.10
48978;DHT22;34793;48.940;2.618;2022-08-19T01:58:58;25.80;66.80
48978;DHT22;34793;48.940;2.618;2022-08-19T02:01:25;25.60;66.80
48978;DHT22;34793;48.940;2.618;2022-08-19T02:03:50;25.60;67.70
48978;DHT22;34793;48.940;2.618;2022-08-19T02:06:19;25.60;67.40
48978;DHT22;34793;48.940;2.618;2022-08-19T02:08:45;25.50;67.60
48978;DHT22;34793;48.940;2.618;2022-08-19T02:11:17;25.50;67.40
48978;DHT22;34793;48.940;2.618;2022-08-19T02:13:44;25.60;67.40
48978;DHT22;34793;48.940;2.618;2022-08-19T02:16:10;25.50;67.70
48978;DHT22;34793;48.940;2.618;2022-08-19T02:18:35;25.50;67.90
48978;DHT22;34793;48.940;2.618;2022-08-19T02:21:00;25.60;67.10
48978;DHT22;34793;48.940;2.618;2022-08-19T02:23:26;25.50;67.00
48978;DHT22;34793;48.940;2.618;2022-08-19T02:25:52;25.30;67.20
48978;DHT22;34793;48.940;2.618;2022-08-19T02:28:17;25.40;67.30
48978;DHT22;34793;48.940;2.618;2022-08-19T02:30:43;25.50;67.70
48978;DHT22;34793;48.940;2.618;2022-08-19T02:33:08;25.50;67.50
48978;DHT22;34793;48.940;2.618;2022-08-19T02:35:34;25.40;67.90
48978;DHT22;34793;48.940;2.618;2022-08-19T02:37:59;25.30;68.10
48978;DHT22;34793;48.940;2.618;2022-08-19T02:40:51;25.10;68.60
48978;DHT22;34793;48.940;2.618;2022-08-19T02:43:19;25.30;68.30
48978;DHT22;34793;48.940;2.618;2022-08-19T02:45:45;25.40;67.90
48978;DHT22;34793;48.940;2.618;2022-08-19T02:48:11;25.40;67.60
48978;DHT22;34793;48.940;2.618;2022-08-19T02:50:39;25.30;67.90
48978;DHT22;34793;48.940;2.618;2022-08-19T02:53:05;25.30;67.20
48978;DHT22;34793;48.940;2.618;2022-08-19T02:55:32;25.40;67.20
48978;DHT22;34793;48.940;2.618;2022-08-19T02:57:57;25.30;67.20
48978;DHT22;34793;48.940;2.618;2022-08-19T03:00:25;25.40;66.90
48978;DHT22;34793;48.940;2.618;2022-08-19T03:02:51;25.20;68.30
48978;DHT22;34793;48.940;2.618;2022-08-19T03:05:17;25.20;68.50
48978;DHT22;34793;48.940;2.618;2022-08-19T03:07:43;25.20;68.80
48978;DHT22;34793;48.940;2.618;2022-08-19T03:10:08;25.10;68.40
48978;DHT22;34793;48.940;2.618;2022-08-19T03:12:35;25.10;69.50
48978;DHT22;34793;48.940;2.618;2022-08-19T03:15:01;25.20;69.50
48978;DHT22;34793;48.940;2.618;2022-08-19T03:17:26;25.20;69.70
48978;DHT22;34793;48.940;2.618;2022-08-19T03:20:07;25.30;69.10
48978;DHT22;34793;48.940;2.618;2022-08-19T03:22:33;25.40;68.50
48978;DHT22;34793;48.940;2.618;2022-08-19T03:24:59;25.50;68.20
48978;DHT22;34793;48.940;2.618;2022-08-19T03:27:24;25.50;68.50
48978;DHT22;34793;48.940;2.618;2022-08-19T03:29:50;25.50;69.00
48978;DHT22;34793;48.940;2.618;2022-08-19T03:35:19;25.50;69.90
48978;DHT22;34793;48.940;2.618;2022-08-19T03:37:45;25.60;69.60
48978;DHT22;34793;48.940;2.618;2022-08-19T03:40:10;25.60;69.20
48978;DHT22;34793;48.940;2.618;2022-08-19T03:42:36;25.70;69.30
48978;DHT22;34793;48.940;2.618;2022-08-19T03:45:02;25.80;69.40
48978;DHT22;34793;48.940;2.618;2022-08-19T03:47:27;25.80;69.00
48978;DHT22;34793;48.940;2.618;2022-08-19T03:49:53;25.90;69.10
48978;DHT22;34793;48.940;2.618;2022-08-19T03:52:18;25.80;69.20
48978;DHT22;34793;48.940;2.618;2022-08-19T03:54:44;25.80;68.60
48978;DHT22;34793;48.940;2.618;2022-08-19T03:57:10;25.80;68.10
48978;DHT22;34793;48.940;2.618;2022-08-19T03:59:36;25.80;69.10
48978;DHT22;34793;48.940;2.618;2022-08-19T04:02:05;25.80;68.90
48978;DHT22;34793;48.940;2.618;2022-08-19T04:04:31;25.90;68.00
48978;DHT22;34793;48.940;2.618;2022-08-19T04:06:57;25.90;67.60
48978;DHT22;34793;48.940;2.618;2022-08-19T04:09:22;25.90;67.40
48978;DHT22;34793;48.940;2.618;2022-08-19T04:11:49;25.90;67.80
48978;DHT22;34793;48.940;2.618;2022-08-19T04:14:17;25.90;68.10
48978;DHT22;34793;48.940;2.618;2022-08-19T04:16:44;25.90;68.30
48978;DHT22;34793;48.940;2.618;2022-08-19T04:19:09;25.90;68.60
48978;DHT22;34793;48.940;2.618;2022-08-19T04:21:35;26.00;68.50
48978;DHT22;34793;48.940;2.618;2022-08-19T04:24:01;26.00;69.30
48978;DHT22;34793;48.940;2.618;2022-08-19T04:26:28;26.00;69.50
48978;DHT22;34793;48.940;2.618;2022-08-19T04:28:54;26.00;69.90
48978;DHT22;34793;48.940;2.618;2022-08-19T04:31:24;26.00;69.30
48978;DHT22;34793;48.940;2.618;2022-08-19T04:33:57;26.00;70.00
48978;DHT22;34793;48.940;2.618;2022-08-19T04:36:25;26.10;69.70
48978;DHT22;34793;48.940;2.618;2022-08-19T04:38:52;26.20;69.80
48978;DHT22;34793;48.940;2.618;2022-08-19T04:41:18;26.10;69.90
48978;DHT22;34793;48.940;2.618;2022-08-19T04:44:02;26.10;69.60
48978;DHT22;34793;48.940;2.618;2022-08-19T04:46:28;26.20;69.30
48978;DHT22;34793;48.940;2.618;2022-08-19T04:48:55;26.30;69.30
48978;DHT22;34793;48.940;2.618;2022-08-19T04:51:22;26.40;69.20
48978;DHT22;34793;48.940;2.618;2022-08-19T04:53:47;26.40;69.30
48978;DHT22;34793;48.940;2.618;2022-08-19T04:56:14;26.40;69.10
48978;DHT22;34793;48.940;2.618;2022-08-19T04:58:41;26.50;68.80
48978;DHT22;34793;48.940;2.618;2022-08-19T05:01:08;26.50;69.00
48978;DHT22;34793;48.940;2.618;2022-08-19T05:03:35;26.60;68.80
48978;DHT22;34793;48.940;2.618;2022-08-19T05:06:08;26.50;69.10
48978;DHT22;34793;48.940;2.618;2022-08-19T05:08:35;26.50;69.20
48978;DHT22;34793;48.940;2.618;2022-08-19T05:11:01;26.40;69.20
48978;DHT22;34793;48.940;2.618;2022-08-19T05:13:27;26.40;69.40
48978;DHT22;34793;48.940;2.618;2022-08-19T05:15:53;26.10;69.80
48978;DHT22;34793;48.940;2.618;2022-08-19T05:18:19;25.90;70.50
48978;DHT22;34793;48.940;2.618;2022-08-19T05:21:07;25.90;70.70
48978;DHT22;34793;48.940;2.618;2022-08-19T05:23:51;26.00;70.50
48978;DHT22;34793;48.940;2.618;2022-08-19T05:26:17;26.20;69.90
48978;DHT22;34793;48.940;2.618;2022-08-19T05:28:42;26.40;70.00
48978;DHT22;34793;48.940;2.618;2022-08-19T05:31:08;26.20;70.40
48978;DHT22;34793;48.940;2.618;2022-08-19T05:33:34;26.30;70.50
48978;DHT22;34793;48.940;2.618;2022-08-19T05:36:00;26.20;70.70
48978;DHT22;34793;48.940;2.618;2022-08-19T05:38:26;26.10;70.40
48978;DHT22;34793;48.940;2.618;2022-08-19T05:40:52;26.00;70.60
48978;DHT22;34793;48.940;2.618;2022-08-19T05:43:18;26.20;70.80
48978;DHT22;34793;48.940;2.618;2022-08-19T05:45:43;26.20;70.60
48978;DHT22;34793;48.940;2.618;2022-08-19T05:48:09;26.30;70.50
48978;DHT22;34793;48.940;2.618;2022-08-19T05:50:39;26.50;70.00
48978;DHT22;34793;48.940;2.618;2022-08-19T05:53:05;26.50;70.00
48978;DHT22;34793;48.940;2.618;2022-08-19T05:55:31;26.40;70.10
48978;DHT22;34793;48.940;2.618;2022-08-19T05:57:56;26.50;70.50
48978;DHT22;34793;48.940;2.618;2022-08-19T06:00:22;26.20;70.30
48978;DHT22;34793;48.940;2.618;2022-08-19T06:02:48;26.10;70.60
48978;DHT22;34793;48.940;2.618;2022-08-19T06:05:13;26.20;71.00
48978;DHT22;34793;48.940;2.618;2022-08-19T06:07:39;26.20;71.00
48978;DHT22;34793;48.940;2.618;2022-08-19T06:10:06;26.40;70.80
48978;DHT22;34793;48.940;2.618;2022-08-19T06:12:32;26.30;70.80
48978;DHT22;34793;48.940;2.618;2022-08-19T06:15:04;26.40;70.20
48978;DHT22;34793;48.940;2.618;2022-08-19T06:17:30;26.30;70.20
48978;DHT22;34793;48.940;2.618;2022-08-19T06:19:56;26.20;70.10
48978;DHT22;34793;48.940;2.618;2022-08-19T06:22:21;26.20;70.30
48978;DHT22;34793;48.940;2.618;2022-08-19T06:24:47;26.00;70.80
48978;DHT22;34793;48.940;2.618;2022-08-19T06:27:12;25.90;71.10
48978;DHT22;34793;48.940;2.618;2022-08-19T06:29:38;26.10;70.80
48978;DHT22;34793;48.940;2.618;2022-08-19T06:32:04;26.00;70.60
48978;DHT22;34793;48.940;2.618;2022-08-19T06:34:31;25.90;71.30
48978;DHT22;34793;48.940;2.618;2022-08-19T06:36:57;25.60;71.70
48978;DHT22;34793;48.940;2.618;2022-08-19T06:39:25;25.70;72.00
48978;DHT22;34793;48.940;2.618;2022-08-19T06:41:52;25.70;72.30
48978;DHT22;34793;48.940;2.618;2022-08-19T06:44:19;25.90;72.10
48978;DHT22;34793;48.940;2.618;2022-08-19T06:46:44;25.90;72.20
48978;DHT22;34793;48.940;2.618;2022-08-19T06:49:10;25.90;72.80
48978;DHT22;34793;48.940;2.618;2022-08-19T06:51:40;25.80;73.10
48978;DHT22;34793;48.940;2.618;2022-08-19T06:54:05;26.00;72.60
48978;DHT22;34793;48.940;2.618;2022-08-19T06:56:32;26.00;72.10
48978;DHT22;34793;48.940;2.618;2022-08-19T06:59:06;26.20;72.00
48978;DHT22;34793;48.940;2.618;2022-08-19T07:01:35;26.20;71.50
48978;DHT22;34793;48.940;2.618;2022-08-19T07:04:03;26.10;71.10
48978;DHT22;34793;48.940;2.618;2022-08-19T07:06:28;26.30;71.60
48978;DHT22;34793;48.940;2.618;2022-08-19T07:08:56;26.40;71.40
48978;DHT22;34793;48.940;2.618;2022-08-19T07:11:23;26.30;70.90
48978;DHT22;34793;48.940;2.618;2022-08-19T07:13:48;26.10;71.60
48978;DHT22;34793;48.940;2.618;2022-08-19T07:16:15;26.00;71.80
48978;DHT22;34793;48.940;2.618;2022-08-19T07:18:41;26.00;72.10
48978;DHT22;34793;48.940;2.618;2022-08-19T07:21:08;26.10;72.20
48978;DHT22;34793;48.940;2.618;2022-08-19T07:23:34;26.50;72.00
48978;DHT22;34793;48.940;2.618;2022-08-19T07:26:09;26.50;71.50
48978;DHT22;34793;48.940;2.618;2022-08-19T07:28:35;26.70;71.20
48978;DHT22;34793;48.940;2.618;2022-08-19T07:31:07;26.60;71.10
48978;DHT22;34793;48.940;2.618;2022-08-19T07:33:33;26.80;70.60
48978;DHT22;34793;48.940;2.618;2022-08-19T07:36:05;26.80;70.50
48978;DHT22;34793;48.940;2.618;2022-08-19T07:38:36;26.80;70.90
48978;DHT22;34793;48.940;2.618;2022-08-19T07:41:02;27.00;70.40
48978;DHT22;34793;48.940;2.618;2022-08-19T07:43:28;27.00;71.20
48978;DHT22;34793;48.940;2.618;2022-08-19T07:45:54;26.70;70.90
48978;DHT22;34793;48.940;2.618;2022-08-19T07:48:26;26.70;70.80
48978;DHT22;34793;48.940;2.618;2022-08-19T07:50:52;26.70;70.90
48978;DHT22;34793;48.940;2.618;2022-08-19T07:53:18;26.80;70.90
48978;DHT22;34793;48.940;2.618;2022-08-19T07:55:45;26.80;70.50
48978;DHT22;34793;48.940;2.618;2022-08-19T07:58:11;27.10;70.10
48978;DHT22;34793;48.940;2.618;2022-08-19T08:00:37;27.00;70.00
48978;DHT22;34793;48.940;2.618;2022-08-19T08:03:05;27.10;70.30
48978;DHT22;34793;48.940;2.618;2022-08-19T08:05:30;27.20;69.80
48978;DHT22;34793;48.940;2.618;2022-08-19T08:08:14;27.20;70.10
48978;DHT22;34793;48.940;2.618;2022-08-19T08:10:59;27.20;69.80
48978;DHT22;34793;48.940;2.618;2022-08-19T08:13:25;27.20;69.90
48978;DHT22;34793;48.940;2.618;2022-08-19T08:15:52;27.40;69.40
48978;DHT22;34793;48.940;2.618;2022-08-19T08:18:17;27.50;69.30
48978;DHT22;34793;48.940;2.618;2022-08-19T08:20:43;27.50;69.10
48978;DHT22;34793;48.940;2.618;2022-08-19T08:23:09;27.50;69.20
48978;DHT22;34793;48.940;2.618;2022-08-19T08:25:51;27.30;69.40
48978;DHT22;34793;48.940;2.618;2022-08-19T08:28:17;27.40;69.60
48978;DHT22;34793;48.940;2.618;2022-08-19T08:30:44;27.10;69.90
48978;DHT22;34793;48.940;2.618;2022-08-19T08:33:10;27.10;70.40
48978;DHT22;34793;48.940;2.618;2022-08-19T08:35:36;27.00;70.70
48978;DHT22;34793;48.940;2.618;2022-08-19T08:38:01;27.10;70.60
48978;DHT22;34793;48.940;2.618;2022-08-19T08:45:33;27.10;70.80
48978;DHT22;34793;48.940;2.618;2022-08-19T08:48:02;27.00;71.20
48978;DHT22;34793;48.940;2.618;2022-08-19T08:50:33;27.20;70.60
48978;DHT22;34793;48.940;2.618;2022-08-19T08:53:01;27.20;70.70
48978;DHT22;34793;48.940;2.618;2022-08-19T08:55:27;27.00;70.50
48978;DHT22;34793;48.940;2.618;2022-08-19T09:00:30;27.00;70.60
48978;DHT22;34793;48.940;2.618;2022-08-19T09:02:57;27.00;71.20
48978;DHT22;34793;48.940;2.618;2022-08-19T09:05:23;27.00;70.80
48978;DHT22;34793;48.940;2.618;2022-08-19T09:08:05;27.30;70.40
48978;DHT22;34793;48.940;2.618;2022-08-19T09:13:07;27.30;70.40
48978;DHT22;34793;48.940;2.618;2022-08-19T09:15:39;27.50;70.00
48978;DHT22;34793;48.940;2.618;2022-08-19T09:18:05;27.40;69.60
48978;DHT22;34793;48.940;2.618;2022-08-19T09:20:33;27.40;69.90
48978;DHT22;34793;48.940;2.618;2022-08-19T09:22:58;27.40;70.20
48978;DHT22;34793;48.940;2.618;2022-08-19T09:25:24;27.50;70.00
48978;DHT22;34793;48.940;2.618;2022-08-19T09:27:50;27.80;70.20
48978;DHT22;34793;48.940;2.618;2022-08-19T09:30:25;28.10;70.10
48978;DHT22;34793;48.940;2.618;2022-08-19T09:32:51;28.30;68.90
48978;DHT22;34793;48.940;2.618;2022-08-19T09:35:21;28.60;68.50
48978;DHT22;34793;48.940;2.618;2022-08-19T09:37:47;28.50;67.90
48978;DHT22;34793;48.940;2.618;2022-08-19T09:40:14;28.80;67.60
48978;DHT22;34793;48.940;2.618;2022-08-19T09:42:40;28.90;67.90
48978;DHT22;34793;48.940;2.618;2022-08-19T09:45:08;28.80;67.00
48978;DHT22;34793;48.940;2.618;2022-08-19T09:47:34;28.90;67.30
48978;DHT22;34793;48.940;2.618;2022-08-19T09:50:06;29.00;66.80
48978;DHT22;34793;48.940;2.618;2022-08-19T09:52:32;29.00;66.80
48978;DHT22;34793;48.940;2.618;2022-08-19T09:54:58;29.20;66.30
48978;DHT22;34793;48.940;2.618;2022-08-19T09:57:24;29.30;66.80
48978;DHT22;34793;48.940;2.618;2022-08-19T09:59:49;29.20;66.50
48978;DHT22;34793;48.940;2.618;2022-08-19T10:02:15;29.20;66.00
48978;DHT22;34793;48.940;2.618;2022-08-19T10:04:40;29.30;66.50
48978;DHT22;34793;48.940;2.618;2022-08-19T10:07:25;29.30;66.60
48978;DHT22;34793;48.940;2.618;2022-08-19T10:09:50;29.50;66.40
48978;DHT22;34793;48.940;2.618;2022-08-19T10:12:16;29.60;66.10
48978;DHT22;34793;48.940;2.618;2022-08-19T10:14:41;29.70;65.90
48978;DHT22;34793;48.940;2.618;2022-08-19T10:17:07;30.10;66.10
48978;DHT22;34793;48.940;2.618;2022-08-19T10:19:33;30.20;64.70
48978;DHT22;34793;48.940;2.618;2022-08-19T10:22:04;30.40;64.40
48978;DHT22;34793;48.940;2.618;2022-08-19T10:24:31;30.60;64.20
48978;DHT22;34793;48.940;2.618;2022-08-19T10:26:56;30.60;63.50
48978;DHT22;34793;48.940;2.618;2022-08-19T10:29:22;30.80;63.90
48978;DHT22;34793;48.940;2.618;2022-08-19T10:31:47;30.70;63.40
48978;DHT22;34793;48.940;2.618;2022-08-19T10:34:13;30.70;63.40
48978;DHT22;34793;48.940;2.618;2022-08-19T10:36:38;30.60;63.10
48978;DHT22;34793;48.940;2.618;2022-08-19T10:39:08;30.60;64.10
48978;DHT22;34793;48.940;2.618;2022-08-19T10:41:35;30.50;64.10
48978;DHT22;34793;48.940;2.618;2022-08-19T10:44:05;30.20;63.90
48978;DHT22;34793;48.940;2.618;2022-08-19T10:46:32;30.30;64.50
48978;DHT22;34793;48.940;2.618;2022-08-19T10:48:58;30.40;65.20
48978;DHT22;34793;48.940;2.618;2022-08-19T10:51:24;30.40;63.50
48978;DHT22;34793;48.940;2.618;2022-08-19T10:54:08;30.00;64.50
48978;DHT22;34793;48.940;2.618;2022-08-19T10:56:33;29.80;65.00
48978;DHT22;34793;48.940;2.618;2022-08-19T10:59:26;29.80;65.90
48978;DHT22;34793;48.940;2.618;2022-08-19T11:01:53;30.20;65.80
48978;DHT22;34793;48.940;2.618;2022-08-19T11:04:19;30.50;65.70
48978;DHT22;34793;48.940;2.618;2022-08-19T11:06:45;30.80;64.70
48978;DHT22;34793;48.940;2.618;2022-08-19T11:09:13;30.80;63.90
48978;DHT22;34793;48.940;2.618;2022-08-19T11:11:39;30.90;64.40
48978;DHT22;34793;48.940;2.618;2022-08-19T11:14:08;31.00;62.60
48978;DHT22;34793;48.940;2.618;2022-08-19T11:16:34;30.80;63.30
48978;DHT22;34793;48.940;2.618;2022-08-19T11:19:00;31.00;63.30
48978;DHT22;34793;48.940;2.618;2022-08-19T11:23:53;31.10;63.10
48978;DHT22;34793;48.940;2.618;2022-08-19T11:26:20;30.90;62.70
48978;DHT22;34793;48.940;2.618;2022-08-19T11:28:47;30.80;64.30
48978;DHT22;34793;48.940;2.618;2022-08-19T11:31:13;30.80;64.30
48978;DHT22;34793;48.940;2.618;2022-08-19T11:33:39;30.80;64.20
48978;DHT22;34793;48.940;2.618;2022-08-19T11:36:05;30.70;64.70
48978;DHT22;34793;48.940;2.618;2022-08-19T11:38:30;30.70;65.20
48978;DHT22;34793;48.940;2.618;2022-08-19T11:40:56;30.60;64.80
48978;DHT22;34793;48.940;2.618;2022-08-19T11:43:22;30.50;65.10
48978;DHT22;34793;48.940;2.618;2022-08-19T11:45:48;30.50;65.60
48978;DHT22;34793;48.940;2.618;2022-08-19T11:48:13;30.30;64.90
48978;DHT22;34793;48.940;2.618;2022-08-19T11:50:39;30.20;65.90
48978;DHT22;34793;48.940;2.618;2022-08-19T11:53:07;30.00;66.50
48978;DHT22;34793;48.940;2.618;2022-08-19T11:55:36;30.30;67.10
48978;DHT22;34793;48.940;2.618;2022-08-19T11:58:01;30.20;66.60
48978;DHT22;34793;48.940;2.618;2022-08-19T12:00:27;30.20;66.80
48978;DHT22;34793;48.940;2.618;2022-08-19T12:02:52;30.20;67.50
48978;DHT22;34793;48.940;2.618;2022-08-19T12:05:19;30.40;66.60
48978;DHT22;34793;48.940;2.618;2022-08-19T12:07:44;30.50;65.80
48978;DHT22;34793;48.940;2.618;2022-08-19T12:10:11;30.60;65.50
48978;DHT22;34793;48.940;2.618;2022-08-19T12:12:36;30.90;65.20
48978;DHT22;34793;48.940;2.618;2022-08-19T12:15:05;30.80;64.90
48978;DHT22;34793;48.940;2.618;2022-08-19T12:17:31;31.00;65.70
48978;DHT22;34793;48.940;2.618;2022-08-19T12:19:57;31.10;64.90
48978;DHT22;34793;48.940;2.618;2022-08-19T12:22:22;31.10;64.50
48978;DHT22;34793;48.940;2.618;2022-08-19T12:24:48;31.30;64.50
48978;DHT22;34793;48.940;2.618;2022-08-19T12:27:16;31.40;64.80
48978;DHT22;34793;48.940;2.618;2022-08-19T12:29:41;31.50;63.20
48978;DHT22;34793;48.940;2.618;2022-08-19T12:32:07;31.60;62.90
48978;DHT22;34793;48.940;2.618;2022-08-19T12:34:32;31.60;63.20
48978;DHT22;34793;48.940;2.618;2022-08-19T12:36:58;31.70;63.50
48978;DHT22;34793;48.940;2.618;2022-08-19T12:39:26;31.50;62.70
48978;DHT22;34793;48.940;2.618;2022-08-19T12:41:51;31.50;62.80
48978;DHT22;34793;48.940;2.618;2022-08-19T12:44:17;31.60;63.90
48978;DHT22;34793;48.940;2.618;2022-08-19T12:46:43;31.60;63.50
48978;DHT22;34793;48.940;2.618;2022-08-19T12:49:08;31.40;63.80
48978;DHT22;34793;48.940;2.618;2022-08-19T12:51:35;31.40;64.30
48978;DHT22;34793;48.940;2.618;2022-08-19T12:54:02;31.50;63.20
48978;DHT22;34793;48.940;2.618;2022-08-19T12:56:28;31.30;63.20
48978;DHT22;34793;48.940;2.618;2022-08-19T12:58:54;31.20;63.80
48978;DHT22;34793;48.940;2.618;2022-08-19T13:01:19;31.00;64.10
48978;DHT22;34793;48.940;2.618;2022-08-19T13:03:45;31.20;64.30
48978;DHT22;34793;48.940;2.618;2022-08-19T13:06:11;31.20;64.50
48978;DHT22;34793;48.940;2.618;2022-08-19T13:08:36;31.20;63.90
48978;DHT22;34793;48.940;2.618;2022-08-19T13:11:21;31.20;64.80
48978;DHT22;34793;48.940;2.618;2022-08-19T13:13:50;31.10;64.20
48978;DHT22;34793;48.940;2.618;2022-08-19T13:16:16;30.80;64.40
48978;DHT22;34793;48.940;2.618;2022-08-19T13:18:42;30.90;64.90
48978;DHT22;34793;48.940;2.618;2022-08-19T13:21:09;31.10;65.00
48978;DHT22;34793;48.940;2.618;2022-08-19T13:23:35;30.90;65.20
48978;DHT22;34793;48.940;2.618;2022-08-19T13:26:02;30.80;65.00
48978;DHT22;34793;48.940;2.618;2022-08-19T13:28:28;30.90;65.50
48978;DHT22;34793;48.940;2.618;2022-08-19T13:31:15;31.10;64.80
48978;DHT22;34793;48.940;2.618;2022-08-19T13:33:59;31.10;65.00
48978;DHT22;34793;48.940;2.618;2022-08-19T13:36:25;31.00;64.30
48978;DHT22;34793;48.940;2.618;2022-08-19T13:38:50;30.90;64.20
48978;DHT22;34793;48.940;2.618;2022-08-19T13:41:20;31.00;64.90
48978;DHT22;34793;48.940;2.618;2022-08-19T13:43:45;31.20;63.50
48978;DHT22;34793;48.940;2.618;2022-08-19T13:46:11;31.20;64.50
48978;DHT22;34793;48.940;2.618;2022-08-19T13:48:39;31.20;65.10
48978;DHT22;34793;48.940;2.618;2022-08-19T13:51:06;31.50;64.80
48978;DHT22;34793;48.940;2.618;2022-08-19T13:53:38;31.90;63.80
48978;DHT22;34793;48.940;2.618;2022-08-19T13:56:05;32.20;62.60
48978;DHT22;34793;48.940;2.618;2022-08-19T13:58:31;32.40;62.80
48978;DHT22;34793;48.940;2.618;2022-08-19T14:00:56;32.70;62.80
48978;DHT22;34793;48.940;2.618;2022-08-19T14:03:24;33.00;62.10
48978;DHT22;34793;48.940;2.618;2022-08-19T14:05:50;33.20;60.40
48978;DHT22;34793;48.940;2.618;2022-08-19T14:08:28;33.30;60.70
48978;DHT22;34793;48.940;2.618;2022-08-19T14:10:55;33.10;60.50
48978;DHT22;34793;48.940;2.618;2022-08-19T14:13:21;33.00;61.20
48978;DHT22;34793;48.940;2.618;2022-08-19T14:15:47;32.90;60.40
48978;DHT22;34793;48.940;2.618;2022-08-19T14:18:13;32.90;60.90
48978;DHT22;34793;48.940;2.618;2022-08-19T14:20:39;32.80;60.30
48978;DHT22;34793;48.940;2.618;2022-08-19T14:23:04;32.90;59.90
48978;DHT22;34793;48.940;2.618;2022-08-19T14:25:31;33.00;60.90
48978;DHT22;34793;48.940;2.618;2022-08-19T14:27:57;32.80;59.90
48978;DHT22;34793;48.940;2.618;2022-08-19T14:30:24;32.60;59.80
48978;DHT22;34793;48.940;2.618;2022-08-19T14:32:52;32.60;60.30
48978;DHT22;34793;48.940;2.618;2022-08-19T14:35:17;32.60;60.60
48978;DHT22;34793;48.940;2.618;2022-08-19T14:37:43;32.60;60.80
48978;DHT22;34793;48.940;2.618;2022-08-19T14:40:09;32.50;60.10
48978;DHT22;34793;48.940;2.618;2022-08-19T14:42:35;32.60;60.10
48978;DHT22;34793;48.940;2.618;2022-08-19T14:45:01;32.50;60.50
48978;DHT22;34793;48.940;2.618;2022-08-19T14:47:26;32.30;60.30
48978;DHT22;34793;48.940;2.618;2022-08-19T14:49:53;32.10;60.60
48978;DHT22;34793;48.940;2.618;2022-08-19T14:52:18;32.10;61.20
48978;DHT22;34793;48.940;2.618;2022-08-19T14:54:44;31.80;60.70
48978;DHT22;34793;48.940;2.618;2022-08-19T14:57:13;31.70;60.90
48978;DHT22;34793;48.940;2.618;2022-08-19T14:59:40;31.60;60.90
48978;DHT22;34793;48.940;2.618;2022-08-19T15:02:06;31.60;61.20
48978;DHT22;34793;48.940;2.618;2022-08-19T15:04:31;31.60;61.30
48978;DHT22;34793;48.940;2.618;2022-08-19T15:06:57;31.60;61.70
48978;DHT22;34793;48.940;2.618;2022-08-19T15:09:23;31.70;61.60
48978;DHT22;34793;48.940;2.618;2022-08-19T15:11:48;31.70;61.90
48978;DHT22;34793;48.940;2.618;2022-08-19T15:14:15;31.80;61.90
48978;DHT22;34793;48.940;2.618;2022-08-19T15:16:40;31.90;62.00
48978;DHT22;34793;48.940;2.618;2022-08-19T15:19:07;32.10;60.90
48978;DHT22;34793;48.940;2.618;2022-08-19T15:21:33;32.00;60.40
48978;DHT22;34793;48.940;2.618;2022-08-19T15:23:59;31.90;60.30
48978;DHT22;34793;48.940;2.618;2022-08-19T15:26:25;32.10;60.60
48978;DHT22;34793;48.940;2.618;2022-08-19T15:28:53;31.80;60.30
48978;DHT22;34793;48.940;2.618;2022-08-19T15:31:19;31.70;60.80
48978;DHT22;34793;48.940;2.618;2022-08-19T15:33:49;31.80;61.10
48978;DHT22;34793;48.940;2.618;2022-08-19T15:36:15;32.00;61.00
48978;DHT22;34793;48.940;2.618;2022-08-19T15:38:40;32.00;60.80
48978;DHT22;34793;48.940;2.618;2022-08-19T15:44:09;32.10;61.30
48978;DHT22;34793;48.940;2.618;2022-08-19T15:46:35;32.00;60.90
48978;DHT22;34793;48.940;2.618;2022-08-19T15:49:01;32.10;60.60